< < Back
Terminal Aerodrome Forecast


Current Version              Previous Versions:   1  2  3  4  5  6  7  8  9  

Terminal Aerodrome Forecast

367
FTUS42 KJAX 292258 AAC
TAFJAX
TAF AMD
KJAX 292258Z 2923/3018 VRB06KT P6SM VCTS BKN050CB BKN250
      TEMPO 2923/3002 VRB12G22KT 2SM TSRA BKN040CB
     FM300300 VRB04KT P6SM BKN250
     FM301500 23006KT P6SM -SHRA SCT035 BKN250=



Latest METAR

651
SAUS80 KWBC 300400
MTRJAX
METAR KJAX 300256Z 00000KT 10SM FEW050 SCT130 BKN250 24/24 A2998 RMK AO2
SLP151 OCNL LTGIC DSNT S CB DSNT S 60003 T02440239 50007
$


USA.gov is the U.S. government's official web portal to all federal, state and local government web resources and services.